sensor_id;sensor_type;location;lat;lon;timestamp;P1;durP1;ratioP1;P2;durP2;ratioP2
72547;SDS011;60570;50.848;6.776;2023-02-01T00:00:41;9.27;;;3.30;;
72547;SDS011;60570;50.848;6.776;2023-02-01T00:01:41;8.53;;;3.47;;
72547;SDS011;60570;50.848;6.776;2023-02-01T00:02:42;9.23;;;3.38;;
72547;SDS011;60570;50.848;6.776;2023-02-01T00:03:42;7.90;;;3.10;;
72547;SDS011;60570;50.848;6.776;2023-02-01T00:04:43;7.43;;;2.90;;
72547;SDS011;60570;50.848;6.776;2023-02-01T00:05:43;8.87;;;3.23;;
72547;SDS011;60570;50.848;6.776;2023-02-01T00:06:44;10.40;;;3.50;;
72547;SDS011;60570;50.848;6.776;2023-02-01T00:07:46;9.37;;;3.33;;
72547;SDS011;60570;50.848;6.776;2023-02-01T00:08:48;8.23;;;3.17;;
72547;SDS011;60570;50.848;6.776;2023-02-01T00:09:49;8.10;;;3.17;;
72547;SDS011;60570;50.848;6.776;2023-02-01T00:10:57;8.33;;;3.00;;
72547;SDS011;60570;50.848;6.776;2023-02-01T00:11:58;9.05;;;3.25;;
72547;SDS011;60570;50.848;6.776;2023-02-01T00:13:01;10.15;;;3.50;;
72547;SDS011;60570;50.848;6.776;2023-02-01T00:14:02;11.32;;;3.63;;
72547;SDS011;60570;50.848;6.776;2023-02-01T00:15:04;7.40;;;3.00;;
72547;SDS011;60570;50.848;6.776;2023-02-01T00:16:06;7.95;;;3.03;;
72547;SDS011;60570;50.848;6.776;2023-02-01T00:17:08;9.73;;;3.28;;
72547;SDS011;60570;50.848;6.776;2023-02-01T00:18:08;9.27;;;3.43;;
72547;SDS011;60570;50.848;6.776;2023-02-01T00:19:11;8.60;;;3.28;;
72547;SDS011;60570;50.848;6.776;2023-02-01T00:20:14;9.48;;;3.83;;
72547;SDS011;60570;50.848;6.776;2023-02-01T00:21:15;7.93;;;3.20;;
72547;SDS011;60570;50.848;6.776;2023-02-01T00:22:17;11.07;;;3.53;;
72547;SDS011;60570;50.848;6.776;2023-02-01T00:23:18;10.98;;;3.53;;
72547;SDS011;60570;50.848;6.776;2023-02-01T00:24:19;8.45;;;3.60;;
72547;SDS011;60570;50.848;6.776;2023-02-01T00:25:19;9.20;;;3.20;;
72547;SDS011;60570;50.848;6.776;2023-02-01T00:26:33;9.73;;;3.60;;
72547;SDS011;60570;50.848;6.776;2023-02-01T00:27:35;11.10;;;3.60;;
72547;SDS011;60570;50.848;6.776;2023-02-01T00:28:36;9.43;;;3.20;;
72547;SDS011;60570;50.848;6.776;2023-02-01T00:29:39;9.73;;;3.20;;
72547;SDS011;60570;50.848;6.776;2023-02-01T00:30:40;10.85;;;3.10;;
72547;SDS011;60570;50.848;6.776;2023-02-01T00:31:41;11.13;;;3.47;;
72547;SDS011;60570;50.848;6.776;2023-02-01T00:32:42;8.82;;;3.03;;
72547;SDS011;60570;50.848;6.776;2023-02-01T00:33:46;10.20;;;3.13;;
72547;SDS011;60570;50.848;6.776;2023-02-01T00:34:47;10.60;;;3.20;;
72547;SDS011;60570;50.848;6.776;2023-02-01T00:35:48;9.23;;;3.22;;
72547;SDS011;60570;50.848;6.776;2023-02-01T00:36:48;9.33;;;3.20;;
72547;SDS011;60570;50.848;6.776;2023-02-01T00:37:49;9.90;;;3.10;;
72547;SDS011;60570;50.848;6.776;2023-02-01T00:38:49;11.43;;;3.80;;
72547;SDS011;60570;50.848;6.776;2023-02-01T00:39:50;9.23;;;3.30;;
72547;SDS011;60570;50.848;6.776;2023-02-01T00:40:50;8.23;;;3.10;;
72547;SDS011;60570;50.848;6.776;2023-02-01T00:41:50;7.80;;;3.00;;
72547;SDS011;60570;50.848;6.776;2023-02-01T00:42:51;9.48;;;3.20;;
72547;SDS011;60570;50.848;6.776;2023-02-01T00:43:52;9.53;;;3.03;;
72547;SDS011;60570;50.848;6.776;2023-02-01T00:44:52;8.25;;;3.08;;
72547;SDS011;60570;50.848;6.776;2023-02-01T00:45:52;9.93;;;3.33;;
72547;SDS011;60570;50.848;6.776;2023-02-01T00:46:53;8.32;;;3.03;;
72547;SDS011;60570;50.848;6.776;2023-02-01T00:47:53;9.10;;;3.33;;
72547;SDS011;60570;50.848;6.776;2023-02-01T00:48:54;9.07;;;3.00;;
72547;SDS011;60570;50.848;6.776;2023-02-01T00:49:55;9.53;;;2.93;;
72547;SDS011;60570;50.848;6.776;2023-02-01T00:50:58;9.07;;;2.88;;
72547;SDS011;60570;50.848;6.776;2023-02-01T00:52:06;10.63;;;3.30;;
72547;SDS011;60570;50.848;6.776;2023-02-01T00:53:06;8.50;;;2.70;;
72547;SDS011;60570;50.848;6.776;2023-02-01T00:54:07;9.60;;;2.70;;
72547;SDS011;60570;50.848;6.776;2023-02-01T00:55:07;9.30;;;3.13;;
72547;SDS011;60570;50.848;6.776;2023-02-01T00:56:08;9.83;;;3.00;;
72547;SDS011;60570;50.848;6.776;2023-02-01T00:57:09;9.48;;;2.90;;
72547;SDS011;60570;50.848;6.776;2023-02-01T00:58:10;9.83;;;2.80;;
72547;SDS011;60570;50.848;6.776;2023-02-01T00:59:11;8.98;;;2.63;;
72547;SDS011;60570;50.848;6.776;2023-02-01T01:00:12;8.90;;;2.83;;
72547;SDS011;60570;50.848;6.776;2023-02-01T01:01:14;10.33;;;2.97;;
72547;SDS011;60570;50.848;6.776;2023-02-01T01:02:17;10.07;;;3.08;;
72547;SDS011;60570;50.848;6.776;2023-02-01T01:03:17;8.17;;;2.80;;
72547;SDS011;60570;50.848;6.776;2023-02-01T01:04:18;12.25;;;3.10;;
72547;SDS011;60570;50.848;6.776;2023-02-01T01:05:18;8.77;;;3.10;;
72547;SDS011;60570;50.848;6.776;2023-02-01T01:06:20;10.95;;;2.92;;
72547;SDS011;60570;50.848;6.776;2023-02-01T01:07:23;9.13;;;2.95;;
72547;SDS011;60570;50.848;6.776;2023-02-01T01:08:23;8.43;;;2.70;;
72547;SDS011;60570;50.848;6.776;2023-02-01T01:09:24;8.50;;;2.47;;
72547;SDS011;60570;50.848;6.776;2023-02-01T01:10:24;7.78;;;2.45;;
72547;SDS011;60570;50.848;6.776;2023-02-01T01:11:26;10.83;;;2.67;;
72547;SDS011;60570;50.848;6.776;2023-02-01T01:12:29;9.80;;;2.70;;
72547;SDS011;60570;50.848;6.776;2023-02-01T01:13:32;10.13;;;2.95;;
72547;SDS011;60570;50.848;6.776;2023-02-01T01:14:32;10.57;;;3.08;;
72547;SDS011;60570;50.848;6.776;2023-02-01T01:15:36;10.03;;;2.70;;
72547;SDS011;60570;50.848;6.776;2023-02-01T01:16:38;9.63;;;2.80;;
72547;SDS011;60570;50.848;6.776;2023-02-01T01:17:38;9.53;;;2.20;;
72547;SDS011;60570;50.848;6.776;2023-02-01T01:18:39;9.70;;;3.10;;
72547;SDS011;60570;50.848;6.776;2023-02-01T01:19:40;8.83;;;2.70;;
72547;SDS011;60570;50.848;6.776;2023-02-01T01:20:40;9.37;;;2.73;;
72547;SDS011;60570;50.848;6.776;2023-02-01T01:21:41;8.00;;;2.40;;
72547;SDS011;60570;50.848;6.776;2023-02-01T01:22:41;8.17;;;2.40;;
72547;SDS011;60570;50.848;6.776;2023-02-01T01:23:42;9.73;;;2.60;;
72547;SDS011;60570;50.848;6.776;2023-02-01T01:24:43;10.35;;;2.83;;
72547;SDS011;60570;50.848;6.776;2023-02-01T01:25:44;9.80;;;2.77;;
72547;SDS011;60570;50.848;6.776;2023-02-01T01:26:44;7.95;;;2.55;;
72547;SDS011;60570;50.848;6.776;2023-02-01T01:27:44;8.77;;;2.47;;
72547;SDS011;60570;50.848;6.776;2023-02-01T01:28:49;8.68;;;2.40;;
72547;SDS011;60570;50.848;6.776;2023-02-01T01:29:50;11.80;;;2.80;;
72547;SDS011;60570;50.848;6.776;2023-02-01T01:30:50;8.07;;;2.50;;
72547;SDS011;60570;50.848;6.776;2023-02-01T01:31:52;8.40;;;2.57;;
72547;SDS011;60570;50.848;6.776;2023-02-01T01:32:52;9.82;;;2.55;;
72547;SDS011;60570;50.848;6.776;2023-02-01T01:33:54;9.20;;;2.50;;
72547;SDS011;60570;50.848;6.776;2023-02-01T01:34:56;9.65;;;2.67;;
72547;SDS011;60570;50.848;6.776;2023-02-01T01:35:57;9.10;;;2.33;;
72547;SDS011;60570;50.848;6.776;2023-02-01T01:36:58;9.82;;;2.45;;
72547;SDS011;60570;50.848;6.776;2023-02-01T01:37:59;9.00;;;2.50;;
72547;SDS011;60570;50.848;6.776;2023-02-01T01:39:00;11.38;;;2.83;;
72547;SDS011;60570;50.848;6.776;2023-02-01T01:40:00;8.00;;;2.70;;
72547;SDS011;60570;50.848;6.776;2023-02-01T01:41:01;11.40;;;3.05;;
72547;SDS011;60570;50.848;6.776;2023-02-01T01:42:02;11.03;;;2.73;;
72547;SDS011;60570;50.848;6.776;2023-02-01T01:43:02;10.05;;;2.72;;
72547;SDS011;60570;50.848;6.776;2023-02-01T01:44:04;8.13;;;2.50;;
72547;SDS011;60570;50.848;6.776;2023-02-01T01:45:08;10.25;;;2.53;;
72547;SDS011;60570;50.848;6.776;2023-02-01T01:46:22;9.20;;;2.63;;
72547;SDS011;60570;50.848;6.776;2023-02-01T01:47:29;9.25;;;2.78;;
72547;SDS011;60570;50.848;6.776;2023-02-01T01:48:35;10.18;;;2.60;;
72547;SDS011;60570;50.848;6.776;2023-02-01T01:49:35;9.38;;;2.55;;
72547;SDS011;60570;50.848;6.776;2023-02-01T01:50:39;8.85;;;2.55;;
72547;SDS011;60570;50.848;6.776;2023-02-01T01:52:55;9.32;;;2.63;;
72547;SDS011;60570;50.848;6.776;2023-02-01T01:54:20;8.43;;;2.55;;
72547;SDS011;60570;50.848;6.776;2023-02-01T01:55:22;9.50;;;2.70;;
72547;SDS011;60570;50.848;6.776;2023-02-01T01:56:26;8.70;;;2.67;;
72547;SDS011;60570;50.848;6.776;2023-02-01T01:57:30;7.85;;;2.20;;
72547;SDS011;60570;50.848;6.776;2023-02-01T01:58:35;7.88;;;2.45;;
72547;SDS011;60570;50.848;6.776;2023-02-01T01:59:38;7.55;;;2.33;;
72547;SDS011;60570;50.848;6.776;2023-02-01T02:00:42;11.07;;;2.87;;
72547;SDS011;60570;50.848;6.776;2023-02-01T02:01:43;9.23;;;2.78;;
72547;SDS011;60570;50.848;6.776;2023-02-01T02:02:46;8.25;;;2.40;;
72547;SDS011;60570;50.848;6.776;2023-02-01T02:03:48;9.68;;;2.70;;
72547;SDS011;60570;50.848;6.776;2023-02-01T02:04:51;9.32;;;2.40;;
72547;SDS011;60570;50.848;6.776;2023-02-01T02:05:52;9.63;;;2.83;;
72547;SDS011;60570;50.848;6.776;2023-02-01T02:07:05;10.85;;;2.95;;
72547;SDS011;60570;50.848;6.776;2023-02-01T02:08:12;8.63;;;2.40;;
72547;SDS011;60570;50.848;6.776;2023-02-01T02:09:12;10.02;;;2.65;;
72547;SDS011;60570;50.848;6.776;2023-02-01T02:10:13;9.83;;;2.43;;
72547;SDS011;60570;50.848;6.776;2023-02-01T02:11:14;8.80;;;2.58;;
72547;SDS011;60570;50.848;6.776;2023-02-01T02:12:17;7.88;;;2.50;;
72547;SDS011;60570;50.848;6.776;2023-02-01T02:13:19;9.23;;;2.63;;
72547;SDS011;60570;50.848;6.776;2023-02-01T02:14:20;9.20;;;2.30;;
72547;SDS011;60570;50.848;6.776;2023-02-01T02:15:23;8.23;;;2.50;;
72547;SDS011;60570;50.848;6.776;2023-02-01T02:16:36;8.30;;;2.40;;
72547;SDS011;60570;50.848;6.776;2023-02-01T02:17:58;9.25;;;2.65;;
72547;SDS011;60570;50.848;6.776;2023-02-01T02:23:36;9.20;;;2.58;;
72547;SDS011;60570;50.848;6.776;2023-02-01T02:27:36;9.70;;;2.85;;
72547;SDS011;60570;50.848;6.776;2023-02-01T02:33:03;9.10;;;2.75;;
72547;SDS011;60570;50.848;6.776;2023-02-01T02:35:54;9.98;;;2.60;;
72547;SDS011;60570;50.848;6.776;2023-02-01T02:37:04;8.50;;;2.63;;
72547;SDS011;60570;50.848;6.776;2023-02-01T02:38:32;8.82;;;2.50;;
72547;SDS011;60570;50.848;6.776;2023-02-01T02:39:44;8.50;;;2.50;;
72547;SDS011;60570;50.848;6.776;2023-02-01T02:42:14;9.55;;;2.75;;
72547;SDS011;60570;50.848;6.776;2023-02-01T02:43:47;10.80;;;2.50;;
72547;SDS011;60570;50.848;6.776;2023-02-01T02:45:20;9.27;;;2.60;;
72547;SDS011;60570;50.848;6.776;2023-02-01T02:47:02;11.07;;;2.83;;
72547;SDS011;60570;50.848;6.776;2023-02-01T02:48:41;9.23;;;2.70;;
72547;SDS011;60570;50.848;6.776;2023-02-01T02:49:54;10.57;;;3.00;;
72547;SDS011;60570;50.848;6.776;2023-02-01T02:51:41;8.63;;;2.58;;
72547;SDS011;60570;50.848;6.776;2023-02-01T02:53:12;11.80;;;3.13;;
72547;SDS011;60570;50.848;6.776;2023-02-01T02:54:39;7.53;;;2.65;;
72547;SDS011;60570;50.848;6.776;2023-02-01T02:55:46;9.25;;;2.60;;
72547;SDS011;60570;50.848;6.776;2023-02-01T02:56:48;11.48;;;2.78;;
72547;SDS011;60570;50.848;6.776;2023-02-01T02:58:09;9.57;;;3.00;;
72547;SDS011;60570;50.848;6.776;2023-02-01T02:59:31;12.70;;;2.80;;
72547;SDS011;60570;50.848;6.776;2023-02-01T03:00:53;12.95;;;2.83;;
72547;SDS011;60570;50.848;6.776;2023-02-01T03:02:13;9.70;;;2.60;;
72547;SDS011;60570;50.848;6.776;2023-02-01T03:03:36;8.07;;;2.25;;
72547;SDS011;60570;50.848;6.776;2023-02-01T03:04:57;10.40;;;2.65;;
72547;SDS011;60570;50.848;6.776;2023-02-01T03:05:58;10.50;;;2.70;;
72547;SDS011;60570;50.848;6.776;2023-02-01T03:08:39;12.07;;;2.78;;
72547;SDS011;60570;50.848;6.776;2023-02-01T03:09:45;8.80;;;2.45;;
72547;SDS011;60570;50.848;6.776;2023-02-01T03:11:52;9.43;;;2.42;;
72547;SDS011;60570;50.848;6.776;2023-02-01T03:13:31;9.98;;;2.45;;
72547;SDS011;60570;50.848;6.776;2023-02-01T03:14:37;11.27;;;2.90;;
72547;SDS011;60570;50.848;6.776;2023-02-01T03:17:07;10.68;;;2.60;;
72547;SDS011;60570;50.848;6.776;2023-02-01T03:19:00;9.90;;;2.58;;
72547;SDS011;60570;50.848;6.776;2023-02-01T03:19:35;9.93;;;2.95;;
72547;SDS011;60570;50.848;6.776;2023-02-01T03:20:44;11.43;;;3.00;;
72547;SDS011;60570;50.848;6.776;2023-02-01T03:21:50;11.38;;;2.90;;
72547;SDS011;60570;50.848;6.776;2023-02-01T03:22:55;10.90;;;2.83;;
72547;SDS011;60570;50.848;6.776;2023-02-01T03:24:00;10.25;;;2.75;;
72547;SDS011;60570;50.848;6.776;2023-02-01T03:25:05;11.90;;;2.85;;
72547;SDS011;60570;50.848;6.776;2023-02-01T03:26:12;10.80;;;2.83;;
72547;SDS011;60570;50.848;6.776;2023-02-01T03:28:34;10.18;;;3.03;;
72547;SDS011;60570;50.848;6.776;2023-02-01T03:29:59;11.00;;;2.78;;
72547;SDS011;60570;50.848;6.776;2023-02-01T03:31:17;12.05;;;3.00;;
72547;SDS011;60570;50.848;6.776;2023-02-01T03:32:18;9.07;;;2.65;;
72547;SDS011;60570;50.848;6.776;2023-02-01T03:33:20;12.43;;;2.93;;
72547;SDS011;60570;50.848;6.776;2023-02-01T03:34:23;12.63;;;3.13;;
72547;SDS011;60570;50.848;6.776;2023-02-01T03:35:26;12.18;;;3.10;;
72547;SDS011;60570;50.848;6.776;2023-02-01T03:36:29;13.48;;;3.13;;
72547;SDS011;60570;50.848;6.776;2023-02-01T03:37:34;12.90;;;3.03;;
72547;SDS011;60570;50.848;6.776;2023-02-01T03:38:40;10.43;;;2.87;;
72547;SDS011;60570;50.848;6.776;2023-02-01T03:39:53;15.40;;;3.17;;
72547;SDS011;60570;50.848;6.776;2023-02-01T03:41:47;13.82;;;3.25;;
72547;SDS011;60570;50.848;6.776;2023-02-01T03:42:42;12.15;;;2.95;;
72547;SDS011;60570;50.848;6.776;2023-02-01T03:43:50;15.80;;;3.13;;
72547;SDS011;60570;50.848;6.776;2023-02-01T03:45:01;12.48;;;3.10;;
72547;SDS011;60570;50.848;6.776;2023-02-01T03:46:20;15.65;;;3.65;;
72547;SDS011;60570;50.848;6.776;2023-02-01T03:47:27;12.90;;;3.17;;
72547;SDS011;60570;50.848;6.776;2023-02-01T03:48:32;14.32;;;3.00;;
72547;SDS011;60570;50.848;6.776;2023-02-01T03:50:43;12.10;;;2.92;;
72547;SDS011;60570;50.848;6.776;2023-02-01T03:51:48;16.97;;;3.33;;
72547;SDS011;60570;50.848;6.776;2023-02-01T03:52:56;13.15;;;3.40;;
72547;SDS011;60570;50.848;6.776;2023-02-01T03:54:01;13.52;;;3.30;;
72547;SDS011;60570;50.848;6.776;2023-02-01T03:55:04;13.65;;;3.33;;
72547;SDS011;60570;50.848;6.776;2023-02-01T03:56:06;12.25;;;3.17;;
72547;SDS011;60570;50.848;6.776;2023-02-01T03:57:10;13.52;;;3.53;;
72547;SDS011;60570;50.848;6.776;2023-02-01T03:58:16;12.27;;;3.45;;
72547;SDS011;60570;50.848;6.776;2023-02-01T03:59:19;14.40;;;3.28;;
72547;SDS011;60570;50.848;6.776;2023-02-01T04:00:21;12.82;;;3.60;;
72547;SDS011;60570;50.848;6.776;2023-02-01T04:01:23;13.95;;;3.72;;
72547;SDS011;60570;50.848;6.776;2023-02-01T04:02:24;14.73;;;3.65;;
72547;SDS011;60570;50.848;6.776;2023-02-01T04:03:24;14.40;;;3.57;;
72547;SDS011;60570;50.848;6.776;2023-02-01T04:04:26;12.68;;;3.35;;
72547;SDS011;60570;50.848;6.776;2023-02-01T04:05:26;13.03;;;3.90;;
72547;SDS011;60570;50.848;6.776;2023-02-01T04:06:27;17.27;;;3.87;;
72547;SDS011;60570;50.848;6.776;2023-02-01T04:07:27;14.13;;;3.77;;
72547;SDS011;60570;50.848;6.776;2023-02-01T04:08:27;14.77;;;3.60;;
72547;SDS011;60570;50.848;6.776;2023-02-01T04:09:28;17.23;;;4.17;;
72547;SDS011;60570;50.848;6.776;2023-02-01T04:10:28;11.77;;;2.90;;
72547;SDS011;60570;50.848;6.776;2023-02-01T04:11:29;14.07;;;3.60;;
72547;SDS011;60570;50.848;6.776;2023-02-01T04:12:29;14.60;;;3.80;;
72547;SDS011;60570;50.848;6.776;2023-02-01T04:13:30;13.50;;;3.78;;
72547;SDS011;60570;50.848;6.776;2023-02-01T04:14:30;13.70;;;3.63;;
72547;SDS011;60570;50.848;6.776;2023-02-01T04:15:30;12.45;;;3.42;;
72547;SDS011;60570;50.848;6.776;2023-02-01T04:16:31;16.33;;;3.70;;
72547;SDS011;60570;50.848;6.776;2023-02-01T04:17:32;14.85;;;3.85;;
72547;SDS011;60570;50.848;6.776;2023-02-01T04:18:33;15.50;;;3.70;;
72547;SDS011;60570;50.848;6.776;2023-02-01T04:19:35;13.68;;;3.42;;
72547;SDS011;60570;50.848;6.776;2023-02-01T04:20:35;12.50;;;3.33;;
72547;SDS011;60570;50.848;6.776;2023-02-01T04:21:35;12.05;;;3.58;;
72547;SDS011;60570;50.848;6.776;2023-02-01T04:22:36;13.30;;;3.80;;
72547;SDS011;60570;50.848;6.776;2023-02-01T04:23:36;17.52;;;3.90;;
72547;SDS011;60570;50.848;6.776;2023-02-01T04:24:37;16.03;;;3.90;;
72547;SDS011;60570;50.848;6.776;2023-02-01T04:25:38;11.95;;;3.55;;
72547;SDS011;60570;50.848;6.776;2023-02-01T04:26:38;16.17;;;3.80;;
72547;SDS011;60570;50.848;6.776;2023-02-01T04:27:38;15.13;;;3.58;;
72547;SDS011;60570;50.848;6.776;2023-02-01T04:28:39;12.97;;;3.30;;
72547;SDS011;60570;50.848;6.776;2023-02-01T04:29:39;13.55;;;3.70;;
72547;SDS011;60570;50.848;6.776;2023-02-01T04:30:41;13.45;;;3.85;;
72547;SDS011;60570;50.848;6.776;2023-02-01T04:31:41;13.67;;;3.73;;
72547;SDS011;60570;50.848;6.776;2023-02-01T04:32:41;11.32;;;3.42;;
72547;SDS011;60570;50.848;6.776;2023-02-01T04:33:42;15.83;;;3.90;;
72547;SDS011;60570;50.848;6.776;2023-02-01T04:34:43;13.73;;;3.70;;
72547;SDS011;60570;50.848;6.776;2023-02-01T04:35:44;16.37;;;3.70;;
72547;SDS011;60570;50.848;6.776;2023-02-01T04:36:44;13.30;;;3.30;;
72547;SDS011;60570;50.848;6.776;2023-02-01T04:37:44;12.77;;;3.45;;
72547;SDS011;60570;50.848;6.776;2023-02-01T04:38:45;16.70;;;4.07;;
72547;SDS011;60570;50.848;6.776;2023-02-01T04:39:45;13.68;;;3.75;;
72547;SDS011;60570;50.848;6.776;2023-02-01T04:40:46;13.93;;;3.33;;
72547;SDS011;60570;50.848;6.776;2023-02-01T04:41:48;14.73;;;3.40;;
72547;SDS011;60570;50.848;6.776;2023-02-01T04:42:48;14.50;;;3.25;;
72547;SDS011;60570;50.848;6.776;2023-02-01T04:43:49;16.23;;;3.53;;
72547;SDS011;60570;50.848;6.776;2023-02-01T04:44:52;15.65;;;3.50;;
72547;SDS011;60570;50.848;6.776;2023-02-01T04:45:52;15.68;;;3.38;;
72547;SDS011;60570;50.848;6.776;2023-02-01T04:46:54;12.40;;;3.28;;
72547;SDS011;60570;50.848;6.776;2023-02-01T04:47:54;12.40;;;3.37;;
72547;SDS011;60570;50.848;6.776;2023-02-01T04:48:54;12.73;;;3.50;;
72547;SDS011;60570;50.848;6.776;2023-02-01T04:49:55;16.67;;;3.77;;
72547;SDS011;60570;50.848;6.776;2023-02-01T04:50:55;12.85;;;2.97;;
72547;SDS011;60570;50.848;6.776;2023-02-01T04:51:56;14.90;;;3.47;;
72547;SDS011;60570;50.848;6.776;2023-02-01T04:52:57;12.45;;;3.42;;
72547;SDS011;60570;50.848;6.776;2023-02-01T04:53:57;14.57;;;3.80;;
72547;SDS011;60570;50.848;6.776;2023-02-01T04:54:58;14.35;;;3.50;;
72547;SDS011;60570;50.848;6.776;2023-02-01T04:56:00;16.42;;;3.15;;
72547;SDS011;60570;50.848;6.776;2023-02-01T04:57:00;17.17;;;4.00;;
72547;SDS011;60570;50.848;6.776;2023-02-01T04:58:01;13.20;;;3.25;;
72547;SDS011;60570;50.848;6.776;2023-02-01T04:59:01;17.60;;;3.80;;
72547;SDS011;60570;50.848;6.776;2023-02-01T05:00:05;16.40;;;3.47;;
72547;SDS011;60570;50.848;6.776;2023-02-01T05:01:07;15.68;;;3.70;;
72547;SDS011;60570;50.848;6.776;2023-02-01T05:02:08;12.85;;;3.30;;
72547;SDS011;60570;50.848;6.776;2023-02-01T05:03:08;14.55;;;3.70;;
72547;SDS011;60570;50.848;6.776;2023-02-01T05:04:09;15.20;;;3.87;;
72547;SDS011;60570;50.848;6.776;2023-02-01T05:05:09;15.07;;;3.40;;
72547;SDS011;60570;50.848;6.776;2023-02-01T05:06:10;12.03;;;3.13;;
72547;SDS011;60570;50.848;6.776;2023-02-01T05:07:10;14.70;;;3.63;;
72547;SDS011;60570;50.848;6.776;2023-02-01T05:08:11;14.27;;;3.40;;
72547;SDS011;60570;50.848;6.776;2023-02-01T05:09:11;13.70;;;3.23;;
72547;SDS011;60570;50.848;6.776;2023-02-01T05:10:11;13.43;;;3.20;;
72547;SDS011;60570;50.848;6.776;2023-02-01T05:11:12;15.43;;;3.53;;
72547;SDS011;60570;50.848;6.776;2023-02-01T05:12:31;16.05;;;3.72;;
72547;SDS011;60570;50.848;6.776;2023-02-01T05:13:50;12.32;;;2.97;;
72547;SDS011;60570;50.848;6.776;2023-02-01T05:14:50;12.30;;;3.40;;
72547;SDS011;60570;50.848;6.776;2023-02-01T05:15:50;14.85;;;3.45;;
72547;SDS011;60570;50.848;6.776;2023-02-01T05:16:51;12.73;;;3.30;;
72547;SDS011;60570;50.848;6.776;2023-02-01T05:17:51;14.30;;;3.38;;
72547;SDS011;60570;50.848;6.776;2023-02-01T05:18:52;13.60;;;3.30;;
72547;SDS011;60570;50.848;6.776;2023-02-01T05:19:53;14.60;;;3.42;;
72547;SDS011;60570;50.848;6.776;2023-02-01T05:20:53;15.77;;;3.47;;
72547;SDS011;60570;50.848;6.776;2023-02-01T05:21:54;17.67;;;3.80;;
72547;SDS011;60570;50.848;6.776;2023-02-01T05:22:54;12.52;;;3.35;;
72547;SDS011;60570;50.848;6.776;2023-02-01T05:23:56;12.90;;;3.50;;
72547;SDS011;60570;50.848;6.776;2023-02-01T05:25:09;12.77;;;3.10;;
72547;SDS011;60570;50.848;6.776;2023-02-01T05:26:12;12.93;;;3.10;;
72547;SDS011;60570;50.848;6.776;2023-02-01T05:27:13;14.32;;;3.40;;
72547;SDS011;60570;50.848;6.776;2023-02-01T05:28:18;11.57;;;3.08;;
72547;SDS011;60570;50.848;6.776;2023-02-01T05:29:19;14.17;;;3.43;;
72547;SDS011;60570;50.848;6.776;2023-02-01T05:30:19;14.38;;;3.30;;
72547;SDS011;60570;50.848;6.776;2023-02-01T05:31:20;14.83;;;3.20;;
72547;SDS011;60570;50.848;6.776;2023-02-01T05:32:21;12.73;;;3.22;;
72547;SDS011;60570;50.848;6.776;2023-02-01T05:33:22;14.27;;;3.30;;
72547;SDS011;60570;50.848;6.776;2023-02-01T05:34:22;12.57;;;2.87;;
72547;SDS011;60570;50.848;6.776;2023-02-01T05:35:23;14.85;;;3.40;;
72547;SDS011;60570;50.848;6.776;2023-02-01T05:36:23;12.53;;;3.10;;
72547;SDS011;60570;50.848;6.776;2023-02-01T05:37:24;12.55;;;2.95;;
72547;SDS011;60570;50.848;6.776;2023-02-01T05:38:24;14.97;;;3.23;;
72547;SDS011;60570;50.848;6.776;2023-02-01T05:39:24;12.03;;;2.93;;
72547;SDS011;60570;50.848;6.776;2023-02-01T05:40:25;11.70;;;2.90;;
72547;SDS011;60570;50.848;6.776;2023-02-01T05:41:25;13.13;;;3.13;;
72547;SDS011;60570;50.848;6.776;2023-02-01T05:42:26;12.40;;;3.00;;
72547;SDS011;60570;50.848;6.776;2023-02-01T05:43:26;11.90;;;3.00;;
72547;SDS011;60570;50.848;6.776;2023-02-01T05:44:26;12.98;;;2.92;;
72547;SDS011;60570;50.848;6.776;2023-02-01T05:45:27;12.10;;;2.80;;
72547;SDS011;60570;50.848;6.776;2023-02-01T05:46:27;12.32;;;2.90;;
72547;SDS011;60570;50.848;6.776;2023-02-01T05:47:28;13.63;;;3.20;;
72547;SDS011;60570;50.848;6.776;2023-02-01T05:48:28;17.35;;;3.45;;
72547;SDS011;60570;50.848;6.776;2023-02-01T05:49:29;13.87;;;2.97;;
72547;SDS011;60570;50.848;6.776;2023-02-01T05:50:29;12.90;;;3.30;;
72547;SDS011;60570;50.848;6.776;2023-02-01T05:51:30;12.57;;;3.13;;
72547;SDS011;60570;50.848;6.776;2023-02-01T05:52:30;13.20;;;2.90;;
72547;SDS011;60570;50.848;6.776;2023-02-01T05:53:31;12.13;;;2.77;;
72547;SDS011;60570;50.848;6.776;2023-02-01T05:54:32;14.20;;;2.88;;
72547;SDS011;60570;50.848;6.776;2023-02-01T05:55:32;12.30;;;2.77;;
72547;SDS011;60570;50.848;6.776;2023-02-01T05:56:32;15.57;;;3.17;;
72547;SDS011;60570;50.848;6.776;2023-02-01T05:57:33;13.80;;;2.77;;
72547;SDS011;60570;50.848;6.776;2023-02-01T05:58:33;14.20;;;2.88;;
72547;SDS011;60570;50.848;6.776;2023-02-01T05:59:34;15.33;;;3.17;;
72547;SDS011;60570;50.848;6.776;2023-02-01T06:00:36;13.05;;;2.90;;
72547;SDS011;60570;50.848;6.776;2023-02-01T06:01:36;12.00;;;3.00;;
72547;SDS011;60570;50.848;6.776;2023-02-01T06:02:37;12.95;;;2.90;;
72547;SDS011;60570;50.848;6.776;2023-02-01T06:03:37;13.20;;;2.92;;
72547;SDS011;60570;50.848;6.776;2023-02-01T06:04:38;12.10;;;2.92;;
72547;SDS011;60570;50.848;6.776;2023-02-01T06:05:39;13.13;;;3.00;;
72547;SDS011;60570;50.848;6.776;2023-02-01T06:06:39;14.45;;;3.33;;
72547;SDS011;60570;50.848;6.776;2023-02-01T06:07:40;12.97;;;2.87;;
72547;SDS011;60570;50.848;6.776;2023-02-01T06:08:40;14.95;;;3.15;;
72547;SDS011;60570;50.848;6.776;2023-02-01T06:09:41;13.30;;;2.73;;
72547;SDS011;60570;50.848;6.776;2023-02-01T06:10:41;12.15;;;2.80;;
72547;SDS011;60570;50.848;6.776;2023-02-01T06:11:41;14.23;;;2.73;;
72547;SDS011;60570;50.848;6.776;2023-02-01T06:12:42;12.95;;;2.92;;
72547;SDS011;60570;50.848;6.776;2023-02-01T06:13:44;13.30;;;2.85;;
72547;SDS011;60570;50.848;6.776;2023-02-01T06:14:45;15.03;;;2.80;;
72547;SDS011;60570;50.848;6.776;2023-02-01T06:15:45;13.43;;;2.78;;
72547;SDS011;60570;50.848;6.776;2023-02-01T06:16:46;18.83;;;3.38;;
72547;SDS011;60570;50.848;6.776;2023-02-01T06:17:47;12.23;;;2.77;;
72547;SDS011;60570;50.848;6.776;2023-02-01T06:18:48;14.13;;;2.78;;
72547;SDS011;60570;50.848;6.776;2023-02-01T06:19:49;12.83;;;2.73;;
72547;SDS011;60570;50.848;6.776;2023-02-01T06:20:53;16.03;;;2.63;;
72547;SDS011;60570;50.848;6.776;2023-02-01T06:21:55;13.65;;;2.88;;
72547;SDS011;60570;50.848;6.776;2023-02-01T06:22:55;10.90;;;2.70;;
72547;SDS011;60570;50.848;6.776;2023-02-01T06:23:55;13.27;;;2.73;;
72547;SDS011;60570;50.848;6.776;2023-02-01T06:24:57;12.43;;;2.78;;
72547;SDS011;60570;50.848;6.776;2023-02-01T06:26:03;14.52;;;3.03;;
72547;SDS011;60570;50.848;6.776;2023-02-01T06:27:05;12.88;;;2.58;;
72547;SDS011;60570;50.848;6.776;2023-02-01T06:28:05;14.77;;;3.43;;
72547;SDS011;60570;50.848;6.776;2023-02-01T06:29:14;11.80;;;2.83;;
72547;SDS011;60570;50.848;6.776;2023-02-01T06:30:15;13.38;;;2.90;;
72547;SDS011;60570;50.848;6.776;2023-02-01T06:31:15;12.23;;;2.87;;
72547;SDS011;60570;50.848;6.776;2023-02-01T06:32:16;13.90;;;3.28;;
72547;SDS011;60570;50.848;6.776;2023-02-01T06:33:17;12.77;;;3.00;;
72547;SDS011;60570;50.848;6.776;2023-02-01T06:34:18;12.00;;;3.00;;
72547;SDS011;60570;50.848;6.776;2023-02-01T06:35:18;16.50;;;3.40;;
72547;SDS011;60570;50.848;6.776;2023-02-01T06:36:19;11.85;;;2.40;;
72547;SDS011;60570;50.848;6.776;2023-02-01T06:37:21;12.27;;;3.00;;
72547;SDS011;60570;50.848;6.776;2023-02-01T06:38:23;12.50;;;2.92;;
72547;SDS011;60570;50.848;6.776;2023-02-01T06:39:23;12.90;;;3.30;;
72547;SDS011;60570;50.848;6.776;2023-02-01T06:40:23;13.90;;;2.93;;
72547;SDS011;60570;50.848;6.776;2023-02-01T06:41:24;14.07;;;2.88;;
72547;SDS011;60570;50.848;6.776;2023-02-01T06:42:25;13.63;;;2.95;;